This is the latest recevied weather packets stored in our database for station/object F4AMY-13. If no packets are shown the sender has not sent any weather packets the latest 10 day(s).
| Time | Temp. | Humidity | Pressure | Rain* | Wind** | Luminosity | Snow |
|---|---|---|---|---|---|---|---|
| 1777551725 | 23.89° C | 48% | 1016.2 hPa | 0 mm | 44.26 m/s, ° | 99 W/m² | - |
| 1777551425 | 24.44° C | 48% | 1016.1 hPa | 0 mm | 78.23 m/s, ° | 175 W/m² | - |
| 1777551125 | 24.44° C | 48% | 1016.2 hPa | 0 mm | 76 m/s, ° | 170 W/m² | - |
| 1777550825 | 25° C | 48% | 1016 hPa | 0 mm | 76 m/s, ° | 170 W/m² | - |
| 1777550525 | 25° C | 47% | 1016.1 hPa | 0 mm | 60.35 m/s, ° | 135 W/m² | - |
| 1777550225 | 25° C | 50% | 1016 hPa | 0 mm | 57.22 m/s, ° | 128 W/m² | - |
| 1777549925 | 25° C | 47% | 1016.3 hPa | 0 mm | 57.22 m/s, ° | 128 W/m² | - |
| 1777549625 | 25° C | 47% | 1016 hPa | 0 mm | 60.35 m/s, ° | 135 W/m² | - |
| 1777549325 | 24.44° C | 48% | 1015.9 hPa | 0 mm | 184.63 m/s, ° | 413 W/m² | - |
| 1777549025 | 24.44° C | 49% | 1016.1 hPa | 0 mm | 113.1 m/s, ° | 253 W/m² | - |
| 1777548725 | 24.44° C | 49% | 1016.1 hPa | 0 mm | 114 m/s, ° | 255 W/m² | - |
| 1777548425 | 24.44° C | 49% | 1015.9 hPa | 0 mm | 102.37 m/s, ° | 229 W/m² | - |
| 1777548125 | 24.44° C | 47% | 1016 hPa | 0 mm | 85.38 m/s, ° | 191 W/m² | - |
| 1777547824 | 24.44° C | 47% | 1015.9 hPa | 0 mm | 62.14 m/s, ° | 139 W/m² | - |
| 1777547524 | 24.44° C | 50% | 1016.2 hPa | 0 mm | 71.08 m/s, ° | 159 W/m² | - |
| 1777547224 | 24.44° C | 52% | 1016.1 hPa | 0 mm | 89.41 m/s, ° | 200 W/m² | - |
| 1777546924 | 24.44° C | 47% | 1016.1 hPa | 0 mm | 57.67 m/s, ° | 129 W/m² | - |
| 1777546624 | 24.44° C | 47% | 1016 hPa | 0 mm | 54.09 m/s, ° | 121 W/m² | - |
| 1777546324 | 24.44° C | 46% | 1016 hPa | 0 mm | 49.17 m/s, ° | 110 W/m² | - |
| 1777546024 | 24.44° C | 48% | 1016 hPa | 0 mm | 69.74 m/s, ° | 156 W/m² | - |
| 1777545724 | 24.44° C | 47% | 1015.9 hPa | 0 mm | 71.08 m/s, ° | 159 W/m² | - |
| 1777545424 | 24.44° C | 48% | 1015.8 hPa | 0 mm | 67.95 m/s, ° | 152 W/m² | - |
| 1777545124 | 24.44° C | 47% | 1015.9 hPa | 0 mm | 56.33 m/s, ° | 126 W/m² | - |
| 1777544824 | 23.89° C | 46% | 1015.9 hPa | 0 mm | 59.01 m/s, ° | 132 W/m² | - |
| 1777544523 | 23.89° C | 48% | 1016 hPa | 0 mm | 57.22 m/s, ° | 128 W/m² | - |
* Rain latest hour (hover to see other rain measurements)
** Current wind speed in m/s (hover to see current wind gust speed)